createdAt,value
2017-06-02T00:00:11.110Z,10.00
2017-06-02T00:02:38.664Z,13.07
2017-06-02T00:05:06.212Z,10.67
2017-06-02T00:07:34.147Z,9.50
2017-06-02T00:10:01.733Z,12.23
2017-06-02T00:12:29.275Z,11.70
2017-06-02T00:14:56.811Z,9.97
2017-06-02T00:17:24.380Z,12.10
2017-06-02T00:19:51.915Z,11.70
2017-06-02T00:22:19.449Z,9.20
2017-06-02T00:24:47.421Z,14.47
2017-06-02T00:27:14.951Z,10.60
2017-06-02T00:29:42.490Z,10.80
2017-06-02T00:32:10.055Z,15.07
2017-06-02T00:34:37.592Z,8.77
2017-06-02T00:37:05.128Z,15.50
2017-06-02T00:39:32.701Z,18.40
2017-06-02T00:42:00.250Z,13.13
2017-06-02T00:44:27.808Z,20.40
2017-06-02T00:46:55.788Z,10.40
2017-06-02T00:49:23.332Z,13.27
2017-06-02T00:51:51.272Z,15.30
2017-06-02T00:54:18.840Z,21.20
2017-06-02T00:56:46.432Z,15.00
2017-06-02T00:59:14.000Z,22.80
2017-06-02T01:01:41.632Z,15.63
2017-06-02T01:04:09.215Z,12.73
2017-06-02T01:06:37.157Z,13.70
2017-06-02T01:09:04.719Z,13.60
2017-06-02T01:11:32.257Z,22.70
2017-06-02T01:13:59.787Z,15.63
2017-06-02T01:16:27.347Z,15.37
2017-06-02T01:18:54.884Z,14.87
2017-06-02T01:21:22.423Z,18.60
2017-06-02T01:23:49.991Z,15.13
2017-06-02T01:26:17.536Z,13.80
2017-06-02T01:28:45.076Z,17.80
2017-06-02T01:31:12.643Z,22.60
2017-06-02T01:33:40.179Z,19.80
2017-06-02T01:36:07.734Z,13.50
2017-06-02T01:38:35.313Z,10.40
2017-06-02T01:41:02.843Z,11.93
2017-06-02T01:43:30.392Z,11.10
2017-06-02T01:45:58.348Z,13.50
2017-06-02T01:48:25.887Z,13.63
2017-06-02T01:50:53.429Z,14.03
2017-06-02T01:53:20.992Z,23.37
2017-06-02T01:55:48.532Z,16.87
2017-06-02T01:58:16.075Z,24.37
2017-06-02T02:00:43.639Z,24.33
2017-06-02T02:03:11.193Z,23.07
2017-06-02T02:05:39.128Z,24.43
2017-06-02T02:08:06.684Z,22.70
2017-06-02T02:10:34.217Z,21.83
2017-06-02T02:13:01.760Z,25.13
2017-06-02T02:15:29.332Z,23.93
2017-06-02T02:17:56.872Z,14.70
2017-06-02T02:20:24.423Z,25.23
2017-06-02T02:22:51.988Z,22.07
2017-06-02T02:25:19.529Z,18.00
2017-06-02T02:27:47.059Z,13.30
2017-06-02T02:30:14.624Z,14.80
2017-06-02T02:32:42.164Z,18.23
2017-06-02T02:35:09.700Z,15.27
2017-06-02T02:37:37.255Z,12.83
2017-06-02T02:40:04.809Z,17.03
2017-06-02T02:42:32.352Z,17.87
2017-06-02T02:44:59.911Z,12.83
2017-06-02T02:47:27.448Z,20.27
2017-06-02T02:49:54.992Z,14.73
2017-06-02T02:52:22.555Z,17.33
2017-06-02T02:54:50.104Z,18.13
2017-06-02T02:57:17.644Z,13.90
2017-06-02T02:59:45.535Z,10.80
2017-06-02T03:02:13.080Z,21.53
2017-06-02T03:04:40.620Z,19.13
2017-06-02T03:07:08.584Z,15.83
2017-06-02T03:09:36.521Z,16.13
2017-06-02T03:12:04.060Z,21.03
2017-06-02T03:14:31.625Z,11.80
2017-06-02T03:16:59.159Z,12.87
2017-06-02T03:19:26.703Z,19.70
2017-06-02T03:21:54.667Z,10.03
2017-06-02T03:24:22.598Z,14.17
2017-06-02T03:26:50.136Z,15.73
2017-06-02T03:29:17.700Z,14.63
2017-06-02T03:31:45.231Z,18.50
2017-06-02T03:34:12.784Z,13.53
2017-06-02T03:36:40.749Z,16.80
2017-06-02T03:39:08.286Z,17.83
2017-06-02T03:41:35.823Z,13.37
2017-06-02T03:44:03.804Z,17.10
2017-06-02T03:46:31.352Z,20.17
2017-06-02T03:48:58.883Z,24.80
2017-06-02T03:51:26.457Z,24.83
2017-06-02T03:53:53.992Z,24.53
2017-06-02T03:56:21.932Z,24.70
2017-06-02T03:58:49.496Z,32.47
2017-06-02T04:01:17.042Z,36.30
2017-06-02T04:03:44.583Z,34.57
2017-06-02T04:06:12.153Z,21.40
2017-06-02T04:08:39.700Z,19.23
2017-06-02T04:11:07.248Z,14.83
2017-06-02T04:13:34.825Z,16.07
2017-06-02T04:16:02.368Z,17.67
2017-06-02T04:18:29.912Z,18.33
2017-06-02T04:20:57.484Z,22.33
2017-06-02T04:23:25.033Z,17.43
2017-06-02T04:25:52.972Z,15.23
2017-06-02T04:28:20.531Z,16.57
2017-06-02T04:30:48.080Z,14.73
2017-06-02T04:33:15.619Z,14.53
2017-06-02T04:35:43.189Z,16.67
2017-06-02T04:38:10.722Z,18.13
2017-06-02T04:40:38.268Z,12.30
2017-06-02T04:43:06.227Z,12.80
2017-06-02T04:45:34.163Z,13.97
2017-06-02T04:48:01.703Z,16.43
2017-06-02T04:50:29.384Z,15.00
2017-06-02T04:52:56.928Z,15.30
2017-06-02T04:55:24.473Z,12.90
2017-06-02T04:57:52.040Z,13.13
2017-06-02T05:00:19.588Z,13.13
2017-06-02T05:02:47.136Z,13.70
2017-06-02T05:05:15.109Z,13.70
2017-06-02T05:07:43.053Z,16.73
2017-06-02T05:10:10.603Z,14.13
2017-06-02T05:12:38.176Z,13.07
2017-06-02T05:15:05.713Z,12.50
2017-06-02T05:17:33.255Z,16.03
2017-06-02T05:20:00.829Z,13.47
2017-06-02T05:22:28.376Z,17.80
2017-06-02T05:24:55.929Z,15.80
2017-06-02T05:27:23.488Z,18.57
2017-06-02T05:29:51.028Z,14.43
2017-06-02T05:32:18.963Z,21.73
2017-06-02T05:34:46.528Z,18.90
2017-06-02T05:37:14.077Z,22.07
2017-06-02T05:39:41.616Z,21.43
2017-06-02T05:42:09.189Z,21.73
2017-06-02T05:44:36.729Z,21.90
2017-06-02T05:47:04.317Z,20.23
2017-06-02T05:49:31.885Z,19.33
2017-06-02T05:51:59.438Z,23.80
2017-06-02T05:54:27.008Z,33.80
2017-06-02T05:56:54.556Z,16.63
2017-06-02T05:59:22.098Z,17.10
2017-06-02T06:01:49.729Z,15.23
2017-06-02T06:04:17.275Z,17.93
2017-06-02T06:06:44.811Z,16.13
2017-06-02T06:09:12.379Z,17.27
2017-06-02T06:11:39.936Z,36.60
2017-06-02T06:14:07.473Z,24.73
2017-06-02T06:16:35.042Z,25.07
2017-06-02T06:19:02.580Z,15.37
2017-06-02T06:21:30.132Z,20.87
2017-06-02T06:23:57.699Z,20.20
2017-06-02T06:26:25.249Z,16.90
2017-06-02T06:28:52.796Z,19.17
2017-06-02T06:31:20.760Z,27.93
2017-06-02T06:33:48.733Z,19.40
2017-06-02T06:36:16.697Z,15.60
2017-06-02T06:38:44.240Z,16.10
2017-06-02T06:41:11.821Z,13.90
2017-06-02T06:43:39.755Z,16.30
2017-06-02T06:46:07.303Z,18.80
2017-06-02T06:48:34.873Z,12.60
2017-06-02T06:51:02.440Z,13.07
2017-06-02T06:53:29.984Z,17.93
2017-06-02T06:55:57.527Z,15.87
2017-06-02T06:58:25.092Z,20.87
2017-06-02T07:00:52.626Z,16.70
2017-06-02T07:03:20.176Z,17.73
2017-06-02T07:05:48.139Z,16.53
2017-06-02T07:08:15.684Z,17.50
2017-06-02T07:10:43.251Z,12.53
2017-06-02T07:13:10.796Z,19.13
2017-06-02T07:15:38.340Z,21.70
2017-06-02T07:18:05.905Z,14.43
2017-06-02T07:20:33.413Z,14.77
2017-06-02T07:23:00.992Z,22.80
2017-06-02T07:25:28.903Z,14.50
2017-06-02T07:27:56.449Z,17.67
2017-06-02T07:30:23.997Z,16.73
2017-06-02T07:32:51.568Z,20.30
2017-06-02T07:35:19.108Z,11.70
2017-06-02T07:37:46.661Z,13.40
2017-06-02T07:40:14.229Z,17.13
2017-06-02T07:42:41.787Z,13.17
2017-06-02T07:45:09.344Z,13.07
2017-06-02T07:47:36.899Z,10.20
2017-06-02T07:50:04.863Z,10.10
2017-06-02T07:52:32.804Z,9.23
2017-06-02T07:55:00.352Z,9.93
2017-06-02T07:57:27.937Z,13.43
2017-06-02T07:59:55.485Z,10.80
2017-06-02T08:02:23.015Z,13.27
2017-06-02T08:04:50.580Z,11.03
2017-06-02T08:07:18.121Z,12.80
2017-06-02T08:09:45.668Z,16.30
2017-06-02T08:12:13.235Z,17.60
2017-06-02T08:14:40.776Z,11.07
2017-06-02T08:17:08.721Z,13.47
2017-06-02T08:19:36.282Z,12.43
2017-06-02T08:22:03.960Z,13.80
2017-06-02T08:24:31.508Z,17.70
2017-06-02T08:26:59.058Z,16.43
2017-06-02T08:29:26.644Z,20.63
2017-06-02T08:31:54.234Z,14.07
2017-06-02T08:34:22.163Z,26.20
2017-06-02T08:36:49.748Z,17.17
2017-06-02T08:39:17.696Z,21.60
2017-06-02T08:41:45.254Z,22.50
2017-06-02T08:44:12.832Z,16.70
2017-06-02T08:46:40.385Z,14.30
2017-06-02T08:49:07.935Z,16.10
2017-06-02T08:51:35.512Z,16.93
2017-06-02T08:54:03.055Z,14.20
2017-06-02T08:56:30.596Z,18.40
2017-06-02T08:58:58.172Z,22.53
2017-06-02T09:01:25.712Z,26.70
2017-06-02T09:03:53.266Z,20.37
2017-06-02T09:06:20.837Z,17.30
2017-06-02T09:08:48.399Z,13.30
2017-06-02T09:11:15.973Z,12.27
2017-06-02T09:13:43.521Z,13.07
2017-06-02T09:16:11.087Z,18.53
2017-06-02T09:18:38.628Z,15.43
2017-06-02T09:21:06.172Z,22.73
2017-06-02T09:23:33.743Z,10.80
2017-06-02T09:26:01.288Z,14.27
2017-06-02T09:28:28.836Z,10.13
2017-06-02T09:30:56.808Z,15.43
2017-06-02T09:33:24.335Z,12.13
2017-06-02T09:35:51.880Z,12.57
2017-06-02T09:38:19.448Z,12.50
2017-06-02T09:40:46.988Z,10.30
2017-06-02T09:43:14.528Z,10.50
2017-06-02T09:45:42.097Z,10.37
2017-06-02T09:48:09.636Z,9.43
2017-06-02T09:50:37.576Z,10.90
2017-06-02T09:53:05.145Z,12.20
2017-06-02T09:55:32.684Z,14.67
2017-06-02T09:58:00.230Z,12.50
2017-06-02T10:00:27.791Z,14.73
2017-06-02T10:02:55.353Z,9.40
2017-06-02T10:05:22.908Z,11.17
2017-06-02T10:07:50.455Z,8.67
2017-06-02T10:10:18.017Z,9.90
2017-06-02T10:12:45.556Z,12.27
2017-06-02T10:15:13.524Z,11.70
2017-06-02T10:17:41.460Z,15.93
2017-06-02T10:20:08.991Z,10.23
2017-06-02T10:22:36.669Z,10.30
2017-06-02T10:25:04.204Z,7.83
2017-06-02T10:27:31.740Z,10.83
2017-06-02T10:29:59.340Z,9.07
2017-06-02T10:32:26.868Z,8.90
2017-06-02T10:34:54.450Z,9.03
2017-06-02T10:37:22.012Z,10.30
2017-06-02T10:39:49.548Z,9.53
2017-06-02T10:42:17.484Z,10.43
2017-06-02T10:44:45.044Z,17.63
2017-06-02T10:47:12.591Z,12.33
2017-06-02T10:49:40.119Z,9.50
2017-06-02T10:52:07.692Z,11.47
2017-06-02T10:54:35.233Z,20.17
2017-06-02T10:57:02.768Z,9.40
2017-06-02T10:59:30.727Z,15.70
2017-06-02T11:01:58.264Z,10.63
2017-06-02T11:04:25.809Z,11.37
2017-06-02T11:06:53.405Z,10.63
2017-06-02T11:09:20.932Z,12.10
2017-06-02T11:11:48.469Z,9.50
2017-06-02T11:14:16.042Z,10.47
2017-06-02T11:16:43.581Z,10.10
2017-06-02T11:19:11.132Z,12.77
2017-06-02T11:21:39.097Z,9.50
2017-06-02T11:24:07.032Z,10.17
2017-06-02T11:26:34.576Z,10.73
2017-06-02T11:29:02.136Z,11.93
2017-06-02T11:31:29.672Z,9.10
2017-06-02T11:33:57.208Z,9.80
2017-06-02T11:36:24.772Z,9.83
2017-06-02T11:38:52.702Z,9.40
2017-06-02T11:41:20.256Z,12.47
2017-06-02T11:43:47.813Z,11.20
2017-06-02T11:46:15.360Z,10.20
2017-06-02T11:48:42.899Z,11.43
2017-06-02T11:51:10.469Z,14.20
2017-06-02T11:53:38.012Z,21.27
2017-06-02T11:56:05.948Z,15.30
2017-06-02T11:58:33.516Z,14.37
2017-06-02T12:01:01.053Z,9.37
2017-06-02T12:03:28.597Z,14.70
2017-06-02T12:05:56.164Z,10.30
2017-06-02T12:08:23.712Z,10.90
2017-06-02T12:10:51.258Z,10.90
2017-06-02T12:13:18.827Z,10.93
2017-06-02T12:15:46.367Z,9.20
2017-06-02T12:18:14.304Z,9.77
2017-06-02T12:20:41.872Z,10.50
2017-06-02T12:23:09.417Z,12.60
2017-06-02T12:25:36.962Z,16.23
2017-06-02T12:29:09.353Z,10.43
2017-06-02T12:31:36.879Z,9.73
2017-06-02T12:34:04.415Z,10.67
2017-06-02T12:36:32.373Z,9.63
2017-06-02T12:38:59.915Z,9.50
2017-06-02T12:41:27.453Z,11.17
2017-06-02T12:43:55.019Z,9.73
2017-06-02T12:46:22.555Z,12.23
2017-06-02T12:48:50.107Z,11.87
2017-06-02T12:51:17.667Z,14.40
2017-06-02T12:53:45.207Z,10.83
2017-06-02T12:56:13.148Z,12.40
2017-06-02T12:58:40.712Z,14.93
2017-06-02T13:01:08.261Z,11.17
2017-06-02T13:03:35.795Z,9.83
2017-06-02T13:06:03.355Z,9.40
2017-06-02T13:08:30.893Z,9.90
2017-06-02T13:10:58.439Z,10.67
2017-06-02T13:13:26.009Z,15.40
2017-06-02T13:15:53.940Z,10.53
2017-06-02T13:18:21.475Z,13.43
2017-06-02T13:20:49.040Z,11.97
2017-06-02T13:23:16.583Z,10.80
2017-06-02T13:25:44.128Z,9.93
2017-06-02T13:28:12.104Z,11.00
2017-06-02T13:30:40.036Z,11.10
2017-06-02T13:33:07.587Z,14.00
2017-06-02T13:35:35.142Z,9.27
2017-06-02T13:38:02.683Z,11.23
2017-06-02T13:40:30.219Z,11.33
2017-06-02T13:42:57.816Z,9.47
2017-06-02T13:45:25.348Z,12.80
2017-06-02T13:47:52.912Z,10.80
2017-06-02T13:50:20.464Z,9.83
2017-06-02T13:52:48.399Z,10.07
2017-06-02T13:55:15.955Z,10.47
2017-06-02T13:57:43.499Z,10.67
2017-06-02T14:00:11.036Z,9.80
2017-06-02T14:02:38.557Z,9.83
2017-06-02T14:05:06.207Z,9.63
2017-06-02T14:07:33.731Z,12.03
2017-06-02T14:10:01.278Z,13.83
2017-06-02T14:12:28.839Z,9.17
2017-06-02T14:14:56.379Z,9.87
2017-06-02T14:17:23.919Z,10.43
2017-06-02T14:19:51.484Z,9.53
2017-06-02T14:22:19.433Z,10.63
2017-06-02T14:24:46.967Z,9.30
2017-06-02T14:27:14.539Z,12.40
2017-06-02T14:29:42.088Z,12.13
2017-06-02T14:32:09.628Z,11.80
2017-06-02T14:34:37.196Z,10.40
2017-06-02T14:37:04.731Z,10.03
2017-06-02T14:39:32.676Z,9.80
2017-06-02T14:42:00.235Z,12.30
2017-06-02T14:44:27.780Z,10.47
2017-06-02T14:46:55.324Z,15.40
2017-06-02T14:49:22.883Z,9.70
2017-06-02T14:51:50.431Z,18.40
2017-06-02T14:54:17.966Z,15.97
2017-06-02T14:56:45.931Z,25.67
2017-06-02T14:59:13.879Z,14.37
2017-06-02T15:01:41.441Z,16.07
2017-06-02T15:04:09.007Z,13.63
2017-06-02T15:06:36.560Z,11.93
2017-06-02T15:09:04.126Z,13.90
2017-06-02T15:11:31.683Z,12.20
2017-06-02T15:13:59.249Z,13.87
2017-06-02T15:16:26.814Z,16.73
2017-06-02T15:18:54.362Z,13.53
2017-06-02T15:21:21.907Z,14.10
2017-06-02T15:23:49.479Z,24.90
2017-06-02T15:26:17.021Z,23.03
2017-06-02T15:28:44.565Z,21.17
2017-06-02T15:31:12.146Z,27.53
2017-06-02T15:33:39.683Z,34.37
2017-06-02T15:36:07.224Z,14.57
2017-06-02T15:38:34.796Z,20.73
2017-06-02T15:41:02.337Z,25.40
2017-06-02T15:43:29.888Z,16.20
2017-06-02T15:45:57.455Z,21.30
2017-06-02T15:48:25.000Z,17.47
2017-06-02T15:50:52.543Z,16.90
2017-06-02T15:53:20.108Z,13.40
2017-06-02T15:55:47.659Z,16.43
2017-06-02T15:58:15.201Z,13.50
2017-06-02T16:00:42.773Z,14.63
2017-06-02T16:03:10.321Z,15.40
2017-06-02T16:05:37.864Z,14.03
2017-06-02T16:08:05.431Z,18.30
2017-06-02T16:10:32.987Z,16.13
2017-06-02T16:13:00.533Z,19.20
2017-06-02T16:15:28.489Z,14.63
2017-06-02T16:17:56.433Z,16.77
2017-06-02T16:20:23.975Z,19.13
2017-06-02T16:22:51.548Z,18.43
2017-06-02T16:25:19.092Z,17.63
2017-06-02T16:27:46.633Z,21.10
2017-06-02T16:30:14.203Z,16.30
2017-06-02T16:32:41.744Z,17.77
2017-06-02T16:35:09.296Z,15.43
2017-06-02T16:37:37.260Z,17.30
2017-06-02T16:40:05.204Z,14.33
2017-06-02T16:42:32.751Z,16.57
2017-06-02T16:45:00.317Z,17.10
2017-06-02T16:47:27.859Z,16.00
2017-06-02T16:49:55.433Z,15.53
2017-06-02T16:52:22.983Z,14.87
2017-06-02T16:54:50.556Z,15.93
2017-06-02T16:57:18.105Z,15.00
2017-06-02T16:59:45.672Z,14.50
2017-06-02T17:02:13.226Z,14.77
2017-06-02T17:04:40.773Z,16.60
2017-06-02T17:07:08.339Z,15.90
2017-06-02T17:09:35.893Z,17.63
2017-06-02T17:12:03.486Z,12.73
2017-06-02T17:14:31.028Z,13.80
2017-06-02T17:16:58.576Z,14.10
2017-06-02T17:19:26.143Z,13.60
2017-06-02T17:21:53.688Z,14.00
2017-06-02T17:24:21.239Z,15.47
2017-06-02T17:26:49.199Z,14.77
2017-06-02T17:29:17.143Z,15.33
2017-06-02T17:31:44.688Z,16.67
2017-06-02T17:34:12.252Z,14.30
2017-06-02T17:36:39.805Z,16.30
2017-06-02T17:39:07.370Z,11.63
2017-06-02T17:41:34.931Z,15.10
2017-06-02T17:44:02.482Z,25.33
2017-06-02T17:46:30.049Z,18.20
2017-06-02T17:48:57.605Z,14.80
2017-06-02T17:51:25.148Z,19.03
2017-06-02T17:53:52.715Z,20.30
2017-06-02T17:56:20.288Z,20.20
2017-06-02T17:58:47.824Z,20.50
2017-06-02T18:01:15.404Z,19.23
2017-06-02T18:03:42.955Z,15.50
2017-06-02T18:06:10.498Z,13.70
2017-06-02T18:08:38.072Z,21.00
2017-06-02T18:11:05.624Z,14.87
2017-06-02T18:13:33.196Z,16.90
2017-06-02T18:16:00.769Z,18.50
2017-06-02T18:18:28.337Z,17.67
2017-06-02T18:20:56.057Z,15.73
2017-06-02T18:23:23.616Z,15.53
2017-06-02T18:25:51.570Z,14.37
2017-06-02T18:28:19.119Z,19.53
2017-06-02T18:30:46.713Z,15.60
2017-06-02T18:33:14.677Z,20.03
2017-06-02T18:35:42.736Z,16.37
2017-06-02T18:38:10.417Z,14.17
2017-06-02T18:40:38.070Z,21.43
2017-06-02T18:43:06.217Z,18.80
2017-06-02T18:45:34.142Z,22.00
2017-06-02T18:48:01.726Z,23.93
2017-06-02T18:50:29.393Z,33.13
2017-06-02T18:52:57.242Z,27.57
2017-06-02T18:55:24.893Z,30.20
2017-06-02T18:57:52.651Z,25.87
2017-06-02T19:00:20.634Z,27.53
2017-06-02T19:02:48.551Z,32.07
2017-06-02T19:05:16.798Z,23.30
2017-06-02T19:07:44.750Z,27.70
2017-06-02T19:10:12.455Z,21.07
2017-06-02T19:12:40.687Z,21.70
2017-06-02T19:15:08.815Z,18.53
2017-06-02T19:17:37.288Z,32.83
2017-06-02T19:20:05.858Z,16.63
2017-06-02T19:22:34.062Z,17.87
2017-06-02T19:25:02.193Z,14.10
2017-06-02T19:27:30.156Z,15.40
2017-06-02T19:29:58.077Z,15.47
2017-06-02T19:32:26.001Z,17.93
2017-06-02T19:34:54.081Z,16.63
2017-06-02T19:37:22.059Z,18.03
2017-06-02T19:39:50.033Z,16.57
2017-06-02T19:42:18.114Z,23.37
2017-06-02T19:44:46.157Z,20.03
2017-06-02T19:47:14.343Z,18.27
2017-06-02T19:49:42.681Z,15.70
2017-06-02T19:52:11.240Z,21.93
2017-06-02T19:54:39.754Z,17.40
2017-06-02T19:57:08.332Z,18.00
2017-06-02T19:59:36.924Z,19.13
2017-06-02T20:02:05.440Z,23.03
2017-06-02T20:04:34.561Z,17.60
2017-06-02T20:07:03.219Z,29.13
2017-06-02T20:09:32.156Z,18.97
2017-06-02T20:12:00.629Z,21.70
2017-06-02T20:14:29.237Z,19.37
2017-06-02T20:16:57.764Z,15.97
2017-06-02T20:19:26.655Z,22.67
2017-06-02T20:21:55.274Z,17.33
2017-06-02T20:24:23.844Z,19.50
2017-06-02T20:26:52.773Z,17.90
2017-06-02T20:29:21.353Z,18.03
2017-06-02T20:31:49.886Z,20.10
2017-06-02T20:34:18.762Z,21.10
2017-06-02T20:36:47.414Z,17.27
2017-06-02T20:39:15.939Z,18.27
2017-06-02T20:41:44.571Z,13.57
2017-06-02T20:44:13.116Z,15.93
2017-06-02T20:46:41.666Z,17.60
2017-06-02T20:49:10.145Z,15.30
2017-06-02T20:51:38.753Z,12.40
2017-06-02T20:54:07.266Z,15.27
2017-06-02T20:56:35.645Z,12.30
2017-06-02T20:59:04.522Z,13.90
2017-06-02T21:01:32.941Z,14.20
2017-06-02T21:04:00.975Z,15.03
2017-06-02T21:06:28.625Z,8.53
2017-06-02T21:08:56.926Z,14.57
2017-06-02T21:11:24.513Z,10.53
2017-06-02T21:13:52.206Z,10.53
2017-06-02T21:16:19.771Z,10.40
2017-06-02T21:18:47.332Z,11.40
2017-06-02T21:21:14.919Z,8.07
2017-06-02T21:23:42.969Z,9.87
2017-06-02T21:26:10.501Z,10.37
2017-06-02T21:28:38.048Z,21.30
2017-06-02T21:31:05.621Z,7.63
2017-06-02T21:33:33.156Z,15.20
2017-06-02T21:36:00.696Z,12.90
2017-06-02T21:38:28.260Z,13.23
2017-06-02T21:40:55.828Z,11.83
2017-06-02T21:43:23.375Z,12.70
2017-06-02T21:45:51.340Z,18.97
2017-06-02T21:48:18.879Z,25.17
2017-06-02T21:50:46.427Z,24.37
2017-06-02T21:53:13.996Z,22.20
2017-06-02T21:55:41.538Z,26.50
2017-06-02T21:58:09.084Z,24.37
2017-06-02T22:00:36.653Z,33.60
2017-06-02T22:03:04.191Z,36.80
2017-06-02T22:05:31.739Z,57.47
2017-06-02T22:07:59.309Z,32.00
2017-06-02T22:10:26.870Z,45.63
2017-06-02T22:12:54.412Z,46.70
2017-06-02T22:15:22.376Z,17.20
2017-06-02T22:17:50.312Z,19.60
2017-06-02T22:20:17.891Z,19.43
2017-06-02T22:22:45.451Z,22.10
2017-06-02T22:25:12.991Z,18.30
2017-06-02T22:27:40.534Z,15.13
2017-06-02T22:30:08.099Z,25.30
2017-06-02T22:32:35.643Z,17.70
2017-06-02T22:35:03.184Z,11.60
2017-06-02T22:37:30.747Z,16.60
2017-06-02T22:39:58.300Z,13.77
2017-06-02T22:42:26.239Z,16.90
2017-06-02T22:44:53.808Z,13.97
2017-06-02T22:47:21.342Z,14.63
2017-06-02T22:49:48.888Z,16.90
2017-06-02T22:52:16.464Z,14.43
2017-06-02T22:54:44.016Z,18.07
2017-06-02T22:57:11.563Z,23.13
2017-06-02T22:59:39.127Z,19.00
2017-06-02T23:02:06.668Z,17.80
2017-06-02T23:04:34.228Z,22.93
2017-06-02T23:07:01.792Z,18.03
2017-06-02T23:09:29.339Z,23.40
2017-06-02T23:11:57.296Z,24.40
2017-06-02T23:14:24.860Z,20.73
2017-06-02T23:16:52.437Z,26.50
2017-06-02T23:19:19.996Z,26.10
2017-06-02T23:21:47.593Z,25.63
2017-06-02T23:24:15.145Z,25.57
2017-06-02T23:26:42.701Z,33.43
2017-06-02T23:29:10.271Z,19.30
2017-06-02T23:31:37.906Z,19.63
2017-06-02T23:34:05.908Z,29.27
2017-06-02T23:36:33.483Z,23.50
2017-06-02T23:39:01.020Z,22.90
2017-06-02T23:41:28.567Z,14.23
2017-06-02T23:43:56.136Z,14.70
2017-06-02T23:46:23.672Z,16.97
2017-06-02T23:48:51.615Z,18.20
2017-06-02T23:51:19.192Z,15.27
2017-06-02T23:53:47.140Z,25.07
2017-06-02T23:56:14.693Z,19.37
2017-06-02T23:58:42.255Z,21.43
